sensor_id;sensor_type;location;lat;lon;timestamp;P1;durP1;ratioP1;P2;durP2;ratioP2
4686;SDS011;2357;47.316;-1.348;2022-09-16T00:01:51;7.50;;;1.57;;
4686;SDS011;2357;47.316;-1.348;2022-09-16T00:04:17;6.73;;;1.60;;
4686;SDS011;2357;47.316;-1.348;2022-09-16T00:06:43;4.40;;;1.33;;
4686;SDS011;2357;47.316;-1.348;2022-09-16T00:09:08;4.80;;;1.70;;
4686;SDS011;2357;47.316;-1.348;2022-09-16T00:11:34;8.97;;;1.80;;
4686;SDS011;2357;47.316;-1.348;2022-09-16T00:14:00;4.67;;;1.67;;
4686;SDS011;2357;47.316;-1.348;2022-09-16T00:16:27;9.13;;;1.77;;
4686;SDS011;2357;47.316;-1.348;2022-09-16T00:18:57;5.57;;;1.70;;
4686;SDS011;2357;47.316;-1.348;2022-09-16T00:21:25;9.50;;;1.80;;
4686;SDS011;2357;47.316;-1.348;2022-09-16T00:23:52;7.90;;;1.83;;
4686;SDS011;2357;47.316;-1.348;2022-09-16T00:26:19;3.13;;;1.97;;
4686;SDS011;2357;47.316;-1.348;2022-09-16T00:28:46;4.23;;;1.20;;
4686;SDS011;2357;47.316;-1.348;2022-09-16T00:31:13;5.50;;;1.10;;
4686;SDS011;2357;47.316;-1.348;2022-09-16T00:33:39;2.60;;;1.20;;
4686;SDS011;2357;47.316;-1.348;2022-09-16T00:38:32;5.40;;;1.20;;
4686;SDS011;2357;47.316;-1.348;2022-09-16T00:40:58;4.00;;;1.53;;
4686;SDS011;2357;47.316;-1.348;2022-09-16T00:43:24;4.93;;;1.53;;
4686;SDS011;2357;47.316;-1.348;2022-09-16T00:45:53;6.83;;;1.23;;
4686;SDS011;2357;47.316;-1.348;2022-09-16T00:48:29;2.43;;;1.20;;
4686;SDS011;2357;47.316;-1.348;2022-09-16T00:51:00;5.53;;;1.40;;
4686;SDS011;2357;47.316;-1.348;2022-09-16T00:53:30;10.87;;;2.07;;
4686;SDS011;2357;47.316;-1.348;2022-09-16T00:56:02;5.47;;;1.10;;
4686;SDS011;2357;47.316;-1.348;2022-09-16T01:00:59;2.60;;;1.27;;
4686;SDS011;2357;47.316;-1.348;2022-09-16T01:03:27;6.73;;;1.43;;
4686;SDS011;2357;47.316;-1.348;2022-09-16T01:05:55;7.97;;;1.53;;
4686;SDS011;2357;47.316;-1.348;2022-09-16T01:08:21;3.03;;;1.10;;
4686;SDS011;2357;47.316;-1.348;2022-09-16T01:10:46;9.53;;;1.33;;
4686;SDS011;2357;47.316;-1.348;2022-09-16T01:13:12;5.70;;;1.10;;
4686;SDS011;2357;47.316;-1.348;2022-09-16T01:23:40;10.30;;;1.57;;
4686;SDS011;2357;47.316;-1.348;2022-09-16T01:31:41;2.77;;;1.37;;
4686;SDS011;2357;47.316;-1.348;2022-09-16T01:45:13;2.73;;;1.17;;
4686;SDS011;2357;47.316;-1.348;2022-09-16T01:50:31;4.20;;;1.53;;
4686;SDS011;2357;47.316;-1.348;2022-09-16T01:55:51;18.13;;;2.20;;
4686;SDS011;2357;47.316;-1.348;2022-09-16T02:01:13;4.00;;;1.43;;
4686;SDS011;2357;47.316;-1.348;2022-09-16T02:03:48;2.90;;;1.20;;
4686;SDS011;2357;47.316;-1.348;2022-09-16T02:06:20;8.23;;;1.70;;
4686;SDS011;2357;47.316;-1.348;2022-09-16T02:08:52;5.90;;;2.03;;
4686;SDS011;2357;47.316;-1.348;2022-09-16T02:11:21;3.60;;;1.30;;
4686;SDS011;2357;47.316;-1.348;2022-09-16T02:13:49;4.80;;;1.67;;
4686;SDS011;2357;47.316;-1.348;2022-09-16T02:16:29;4.23;;;1.60;;
4686;SDS011;2357;47.316;-1.348;2022-09-16T02:19:01;9.03;;;1.33;;
4686;SDS011;2357;47.316;-1.348;2022-09-16T02:21:33;3.63;;;1.50;;
4686;SDS011;2357;47.316;-1.348;2022-09-16T02:24:02;1.63;;;1.30;;
4686;SDS011;2357;47.316;-1.348;2022-09-16T02:26:33;10.53;;;1.30;;
4686;SDS011;2357;47.316;-1.348;2022-09-16T02:29:02;12.83;;;1.07;;
4686;SDS011;2357;47.316;-1.348;2022-09-16T02:31:34;4.07;;;1.77;;
4686;SDS011;2357;47.316;-1.348;2022-09-16T02:34:04;7.50;;;1.70;;
4686;SDS011;2357;47.316;-1.348;2022-09-16T02:36:34;5.03;;;1.53;;
4686;SDS011;2357;47.316;-1.348;2022-09-16T02:39:05;4.73;;;1.10;;
4686;SDS011;2357;47.316;-1.348;2022-09-16T02:41:34;4.37;;;1.33;;
4686;SDS011;2357;47.316;-1.348;2022-09-16T02:44:03;10.03;;;1.27;;
4686;SDS011;2357;47.316;-1.348;2022-09-16T02:51:38;4.90;;;1.40;;
4686;SDS011;2357;47.316;-1.348;2022-09-16T02:54:23;3.77;;;1.30;;
4686;SDS011;2357;47.316;-1.348;2022-09-16T02:57:10;2.83;;;1.53;;
4686;SDS011;2357;47.316;-1.348;2022-09-16T02:59:37;2.40;;;1.50;;
4686;SDS011;2357;47.316;-1.348;2022-09-16T03:02:03;6.73;;;1.40;;
4686;SDS011;2357;47.316;-1.348;2022-09-16T03:04:29;4.90;;;1.60;;
4686;SDS011;2357;47.316;-1.348;2022-09-16T03:06:55;5.13;;;1.50;;
4686;SDS011;2357;47.316;-1.348;2022-09-16T03:09:21;5.17;;;1.27;;
4686;SDS011;2357;47.316;-1.348;2022-09-16T03:19:36;2.20;;;1.20;;
4686;SDS011;2357;47.316;-1.348;2022-09-16T03:30:11;6.90;;;1.60;;
4686;SDS011;2357;47.316;-1.348;2022-09-16T03:32:40;8.97;;;2.50;;
4686;SDS011;2357;47.316;-1.348;2022-09-16T03:38:03;4.20;;;1.13;;
4686;SDS011;2357;47.316;-1.348;2022-09-16T03:40:32;8.73;;;1.67;;
4686;SDS011;2357;47.316;-1.348;2022-09-16T03:42:59;4.80;;;1.33;;
4686;SDS011;2357;47.316;-1.348;2022-09-16T03:45:24;5.67;;;1.10;;
4686;SDS011;2357;47.316;-1.348;2022-09-16T03:47:51;5.40;;;1.10;;
4686;SDS011;2357;47.316;-1.348;2022-09-16T03:50:17;9.47;;;2.27;;
4686;SDS011;2357;47.316;-1.348;2022-09-16T03:52:44;4.93;;;1.67;;
4686;SDS011;2357;47.316;-1.348;2022-09-16T03:55:10;12.57;;;2.20;;
4686;SDS011;2357;47.316;-1.348;2022-09-16T03:57:36;6.20;;;1.40;;
4686;SDS011;2357;47.316;-1.348;2022-09-16T04:00:03;9.97;;;1.73;;
4686;SDS011;2357;47.316;-1.348;2022-09-16T04:02:30;9.93;;;1.87;;
4686;SDS011;2357;47.316;-1.348;2022-09-16T04:04:56;3.27;;;1.30;;
4686;SDS011;2357;47.316;-1.348;2022-09-16T04:07:21;7.47;;;1.53;;
4686;SDS011;2357;47.316;-1.348;2022-09-16T04:09:47;2.80;;;1.50;;
4686;SDS011;2357;47.316;-1.348;2022-09-16T04:12:13;4.87;;;1.73;;
4686;SDS011;2357;47.316;-1.348;2022-09-16T04:14:39;3.27;;;1.50;;
4686;SDS011;2357;47.316;-1.348;2022-09-16T04:17:04;6.57;;;1.60;;
4686;SDS011;2357;47.316;-1.348;2022-09-16T04:19:30;3.97;;;1.50;;
4686;SDS011;2357;47.316;-1.348;2022-09-16T04:21:55;4.53;;;1.43;;
4686;SDS011;2357;47.316;-1.348;2022-09-16T04:24:21;4.93;;;1.50;;
4686;SDS011;2357;47.316;-1.348;2022-09-16T04:26:47;9.77;;;1.43;;
4686;SDS011;2357;47.316;-1.348;2022-09-16T04:29:12;3.57;;;1.63;;
4686;SDS011;2357;47.316;-1.348;2022-09-16T04:31:38;10.23;;;2.93;;
4686;SDS011;2357;47.316;-1.348;2022-09-16T04:34:04;9.23;;;1.73;;
4686;SDS011;2357;47.316;-1.348;2022-09-16T04:36:30;3.93;;;1.47;;
4686;SDS011;2357;47.316;-1.348;2022-09-16T04:38:56;2.93;;;1.20;;
4686;SDS011;2357;47.316;-1.348;2022-09-16T04:41:22;6.63;;;1.63;;
4686;SDS011;2357;47.316;-1.348;2022-09-16T04:43:49;3.57;;;1.53;;
4686;SDS011;2357;47.316;-1.348;2022-09-16T04:46:25;2.53;;;1.70;;
4686;SDS011;2357;47.316;-1.348;2022-09-16T04:48:52;3.63;;;2.07;;
4686;SDS011;2357;47.316;-1.348;2022-09-16T04:51:19;7.83;;;1.67;;
4686;SDS011;2357;47.316;-1.348;2022-09-16T04:53:46;14.93;;;2.10;;
4686;SDS011;2357;47.316;-1.348;2022-09-16T04:58:40;5.40;;;1.77;;
4686;SDS011;2357;47.316;-1.348;2022-09-16T05:01:08;4.40;;;1.40;;
4686;SDS011;2357;47.316;-1.348;2022-09-16T05:03:43;5.30;;;1.60;;
4686;SDS011;2357;47.316;-1.348;2022-09-16T05:06:11;7.37;;;2.60;;
4686;SDS011;2357;47.316;-1.348;2022-09-16T05:08:38;5.70;;;2.00;;
4686;SDS011;2357;47.316;-1.348;2022-09-16T05:11:05;8.63;;;1.40;;
4686;SDS011;2357;47.316;-1.348;2022-09-16T05:13:36;4.40;;;1.43;;
4686;SDS011;2357;47.316;-1.348;2022-09-16T05:16:05;4.60;;;1.30;;
4686;SDS011;2357;47.316;-1.348;2022-09-16T05:18:33;8.10;;;2.00;;
4686;SDS011;2357;47.316;-1.348;2022-09-16T05:21:00;7.97;;;1.67;;
4686;SDS011;2357;47.316;-1.348;2022-09-16T05:23:26;6.23;;;2.03;;
4686;SDS011;2357;47.316;-1.348;2022-09-16T05:25:53;2.97;;;1.30;;
4686;SDS011;2357;47.316;-1.348;2022-09-16T05:28:19;5.50;;;2.00;;
4686;SDS011;2357;47.316;-1.348;2022-09-16T05:30:45;5.03;;;1.97;;
4686;SDS011;2357;47.316;-1.348;2022-09-16T05:33:10;7.10;;;1.70;;
4686;SDS011;2357;47.316;-1.348;2022-09-16T05:35:36;6.77;;;1.67;;
4686;SDS011;2357;47.316;-1.348;2022-09-16T05:38:02;9.90;;;1.80;;
4686;SDS011;2357;47.316;-1.348;2022-09-16T05:40:28;7.50;;;1.57;;
4686;SDS011;2357;47.316;-1.348;2022-09-16T05:42:53;2.63;;;1.60;;
4686;SDS011;2357;47.316;-1.348;2022-09-16T05:45:19;7.53;;;1.63;;
4686;SDS011;2357;47.316;-1.348;2022-09-16T05:47:48;4.50;;;1.57;;
4686;SDS011;2357;47.316;-1.348;2022-09-16T05:50:14;19.30;;;3.40;;
4686;SDS011;2357;47.316;-1.348;2022-09-16T05:52:40;7.97;;;1.83;;
4686;SDS011;2357;47.316;-1.348;2022-09-16T05:55:06;4.63;;;1.57;;
4686;SDS011;2357;47.316;-1.348;2022-09-16T05:57:32;8.80;;;1.90;;
4686;SDS011;2357;47.316;-1.348;2022-09-16T05:59:58;5.33;;;1.90;;
4686;SDS011;2357;47.316;-1.348;2022-09-16T06:02:23;7.47;;;2.47;;
4686;SDS011;2357;47.316;-1.348;2022-09-16T06:04:49;5.50;;;1.70;;
4686;SDS011;2357;47.316;-1.348;2022-09-16T06:07:15;4.47;;;1.80;;
4686;SDS011;2357;47.316;-1.348;2022-09-16T06:09:41;13.83;;;2.17;;
4686;SDS011;2357;47.316;-1.348;2022-09-16T06:12:08;7.00;;;2.00;;
4686;SDS011;2357;47.316;-1.348;2022-09-16T06:14:34;8.00;;;2.30;;
4686;SDS011;2357;47.316;-1.348;2022-09-16T06:17:00;6.53;;;1.80;;
4686;SDS011;2357;47.316;-1.348;2022-09-16T06:19:26;4.87;;;1.80;;
4686;SDS011;2357;47.316;-1.348;2022-09-16T06:21:52;3.80;;;1.50;;
4686;SDS011;2357;47.316;-1.348;2022-09-16T06:24:18;3.27;;;1.73;;
4686;SDS011;2357;47.316;-1.348;2022-09-16T06:26:45;6.27;;;1.90;;
4686;SDS011;2357;47.316;-1.348;2022-09-16T06:29:12;4.70;;;1.80;;
4686;SDS011;2357;47.316;-1.348;2022-09-16T06:31:38;5.83;;;1.93;;
4686;SDS011;2357;47.316;-1.348;2022-09-16T06:34:05;6.87;;;1.60;;
4686;SDS011;2357;47.316;-1.348;2022-09-16T06:36:33;9.07;;;1.97;;
4686;SDS011;2357;47.316;-1.348;2022-09-16T06:39:00;9.50;;;1.97;;
4686;SDS011;2357;47.316;-1.348;2022-09-16T06:41:26;7.50;;;1.83;;
4686;SDS011;2357;47.316;-1.348;2022-09-16T06:43:52;3.63;;;1.90;;
4686;SDS011;2357;47.316;-1.348;2022-09-16T06:46:22;8.03;;;1.70;;
4686;SDS011;2357;47.316;-1.348;2022-09-16T06:48:50;12.03;;;2.07;;
4686;SDS011;2357;47.316;-1.348;2022-09-16T06:51:19;8.03;;;2.20;;
4686;SDS011;2357;47.316;-1.348;2022-09-16T06:53:47;5.50;;;2.77;;
4686;SDS011;2357;47.316;-1.348;2022-09-16T06:56:14;2.80;;;1.30;;
4686;SDS011;2357;47.316;-1.348;2022-09-16T06:58:42;4.10;;;1.20;;
4686;SDS011;2357;47.316;-1.348;2022-09-16T07:01:12;6.27;;;1.50;;
4686;SDS011;2357;47.316;-1.348;2022-09-16T07:03:43;14.43;;;3.07;;
4686;SDS011;2357;47.316;-1.348;2022-09-16T07:06:10;14.70;;;2.00;;
4686;SDS011;2357;47.316;-1.348;2022-09-16T07:08:38;3.03;;;1.40;;
4686;SDS011;2357;47.316;-1.348;2022-09-16T07:13:41;3.23;;;1.50;;
4686;SDS011;2357;47.316;-1.348;2022-09-16T07:16:08;3.87;;;1.57;;
4686;SDS011;2357;47.316;-1.348;2022-09-16T07:18:36;5.50;;;1.97;;
4686;SDS011;2357;47.316;-1.348;2022-09-16T07:21:03;7.23;;;1.83;;
4686;SDS011;2357;47.316;-1.348;2022-09-16T07:23:40;8.93;;;1.70;;
4686;SDS011;2357;47.316;-1.348;2022-09-16T07:26:28;2.97;;;1.43;;
4686;SDS011;2357;47.316;-1.348;2022-09-16T07:28:53;3.97;;;1.67;;
4686;SDS011;2357;47.316;-1.348;2022-09-16T07:31:20;9.10;;;1.97;;
4686;SDS011;2357;47.316;-1.348;2022-09-16T07:33:51;3.93;;;1.40;;
4686;SDS011;2357;47.316;-1.348;2022-09-16T07:36:19;6.23;;;1.53;;
4686;SDS011;2357;47.316;-1.348;2022-09-16T07:38:46;2.40;;;1.40;;
4686;SDS011;2357;47.316;-1.348;2022-09-16T07:41:22;7.03;;;1.60;;
4686;SDS011;2357;47.316;-1.348;2022-09-16T07:43:51;2.13;;;1.20;;
4686;SDS011;2357;47.316;-1.348;2022-09-16T07:46:18;9.23;;;1.40;;
4686;SDS011;2357;47.316;-1.348;2022-09-16T07:48:46;2.70;;;1.43;;
4686;SDS011;2357;47.316;-1.348;2022-09-16T07:51:16;5.40;;;1.67;;
4686;SDS011;2357;47.316;-1.348;2022-09-16T07:53:44;3.50;;;1.40;;
4686;SDS011;2357;47.316;-1.348;2022-09-16T07:56:14;5.70;;;1.20;;
4686;SDS011;2357;47.316;-1.348;2022-09-16T07:58:42;6.57;;;1.73;;
4686;SDS011;2357;47.316;-1.348;2022-09-16T08:01:09;7.13;;;1.30;;
4686;SDS011;2357;47.316;-1.348;2022-09-16T08:03:36;2.40;;;1.23;;
4686;SDS011;2357;47.316;-1.348;2022-09-16T08:06:07;9.50;;;1.80;;
4686;SDS011;2357;47.316;-1.348;2022-09-16T08:08:35;3.77;;;1.47;;
4686;SDS011;2357;47.316;-1.348;2022-09-16T08:11:01;4.37;;;1.40;;
4686;SDS011;2357;47.316;-1.348;2022-09-16T08:13:28;2.93;;;1.50;;
4686;SDS011;2357;47.316;-1.348;2022-09-16T08:15:58;8.67;;;1.80;;
4686;SDS011;2357;47.316;-1.348;2022-09-16T08:18:28;1.80;;;1.00;;
4686;SDS011;2357;47.316;-1.348;2022-09-16T08:20:54;5.70;;;1.43;;
4686;SDS011;2357;47.316;-1.348;2022-09-16T08:23:20;7.43;;;2.00;;
4686;SDS011;2357;47.316;-1.348;2022-09-16T08:25:45;14.83;;;1.60;;
4686;SDS011;2357;47.316;-1.348;2022-09-16T08:28:12;6.97;;;1.43;;
4686;SDS011;2357;47.316;-1.348;2022-09-16T08:30:39;2.60;;;1.30;;
4686;SDS011;2357;47.316;-1.348;2022-09-16T08:33:05;4.03;;;1.97;;
4686;SDS011;2357;47.316;-1.348;2022-09-16T08:35:31;2.40;;;1.20;;
4686;SDS011;2357;47.316;-1.348;2022-09-16T08:37:58;5.33;;;1.60;;
4686;SDS011;2357;47.316;-1.348;2022-09-16T08:40:23;4.50;;;1.53;;
4686;SDS011;2357;47.316;-1.348;2022-09-16T08:43:41;12.50;;;1.20;;
4686;SDS011;2357;47.316;-1.348;2022-09-16T08:45:54;3.03;;;1.40;;
4686;SDS011;2357;47.316;-1.348;2022-09-16T08:51:22;7.57;;;1.40;;
4686;SDS011;2357;47.316;-1.348;2022-09-16T08:53:53;4.10;;;1.30;;
4686;SDS011;2357;47.316;-1.348;2022-09-16T08:56:28;4.60;;;1.50;;
4686;SDS011;2357;47.316;-1.348;2022-09-16T08:59:00;2.47;;;1.30;;
4686;SDS011;2357;47.316;-1.348;2022-09-16T09:04:13;3.33;;;1.73;;
4686;SDS011;2357;47.316;-1.348;2022-09-16T09:06:49;1.83;;;1.30;;
4686;SDS011;2357;47.316;-1.348;2022-09-16T09:25:51;6.63;;;0.90;;
4686;SDS011;2357;47.316;-1.348;2022-09-16T09:31:22;0.70;;;0.70;;
4686;SDS011;2357;47.316;-1.348;2022-09-16T09:34:32;3.80;;;0.80;;
4686;SDS011;2357;47.316;-1.348;2022-09-16T09:40:30;11.23;;;1.33;;
4686;SDS011;2357;47.316;-1.348;2022-09-16T09:43:13;5.60;;;1.37;;
4686;SDS011;2357;47.316;-1.348;2022-09-16T09:48:22;1.43;;;0.90;;
4686;SDS011;2357;47.316;-1.348;2022-09-16T09:50:55;1.80;;;0.80;;
4686;SDS011;2357;47.316;-1.348;2022-09-16T09:53:31;1.97;;;0.77;;
4686;SDS011;2357;47.316;-1.348;2022-09-16T09:56:07;2.10;;;0.77;;
4686;SDS011;2357;47.316;-1.348;2022-09-16T09:59:05;6.33;;;1.57;;
4686;SDS011;2357;47.316;-1.348;2022-09-16T10:01:51;7.90;;;1.63;;
4686;SDS011;2357;47.316;-1.348;2022-09-16T10:04:18;3.00;;;1.43;;
4686;SDS011;2357;47.316;-1.348;2022-09-16T10:06:44;2.13;;;0.90;;
4686;SDS011;2357;47.316;-1.348;2022-09-16T10:09:13;2.10;;;0.70;;
4686;SDS011;2357;47.316;-1.348;2022-09-16T10:11:45;1.30;;;0.90;;
4686;SDS011;2357;47.316;-1.348;2022-09-16T10:14:32;4.63;;;0.93;;
4686;SDS011;2357;47.316;-1.348;2022-09-16T10:17:03;1.20;;;0.70;;
4686;SDS011;2357;47.316;-1.348;2022-09-16T10:19:39;2.43;;;1.40;;
4686;SDS011;2357;47.316;-1.348;2022-09-16T10:22:32;0.97;;;0.57;;
4686;SDS011;2357;47.316;-1.348;2022-09-16T10:25:00;1.70;;;0.63;;
4686;SDS011;2357;47.316;-1.348;2022-09-16T10:27:28;2.30;;;0.70;;
4686;SDS011;2357;47.316;-1.348;2022-09-16T10:30:04;2.70;;;0.67;;
4686;SDS011;2357;47.316;-1.348;2022-09-16T10:32:30;1.00;;;0.60;;
4686;SDS011;2357;47.316;-1.348;2022-09-16T10:35:06;0.60;;;0.60;;
4686;SDS011;2357;47.316;-1.348;2022-09-16T10:37:33;0.70;;;0.50;;
4686;SDS011;2357;47.316;-1.348;2022-09-16T10:39:58;1.13;;;0.90;;
4686;SDS011;2357;47.316;-1.348;2022-09-16T10:42:28;1.27;;;0.80;;
4686;SDS011;2357;47.316;-1.348;2022-09-16T10:44:55;2.30;;;0.70;;
4686;SDS011;2357;47.316;-1.348;2022-09-16T10:47:29;1.37;;;0.60;;
4686;SDS011;2357;47.316;-1.348;2022-09-16T10:49:58;3.07;;;0.97;;
4686;SDS011;2357;47.316;-1.348;2022-09-16T10:52:28;0.57;;;0.57;;
4686;SDS011;2357;47.316;-1.348;2022-09-16T10:54:55;3.27;;;0.67;;
4686;SDS011;2357;47.316;-1.348;2022-09-16T10:57:28;3.67;;;0.60;;
4686;SDS011;2357;47.316;-1.348;2022-09-16T11:00:01;1.50;;;0.80;;
4686;SDS011;2357;47.316;-1.348;2022-09-16T11:22:28;1.83;;;0.70;;
4686;SDS011;2357;47.316;-1.348;2022-09-16T11:31:17;3.07;;;0.70;;
4686;SDS011;2357;47.316;-1.348;2022-09-16T11:37:11;0.93;;;0.60;;
4686;SDS011;2357;47.316;-1.348;2022-09-16T11:43:05;2.17;;;0.70;;
4686;SDS011;2357;47.316;-1.348;2022-09-16T11:51:23;3.23;;;1.00;;
4686;SDS011;2357;47.316;-1.348;2022-09-16T11:56:57;3.53;;;0.90;;
4686;SDS011;2357;47.316;-1.348;2022-09-16T11:59:34;1.47;;;0.70;;
4686;SDS011;2357;47.316;-1.348;2022-09-16T12:04:40;0.87;;;0.60;;
4686;SDS011;2357;47.316;-1.348;2022-09-16T12:07:14;0.70;;;0.60;;
4686;SDS011;2357;47.316;-1.348;2022-09-16T12:09:47;0.70;;;0.70;;
4686;SDS011;2357;47.316;-1.348;2022-09-16T12:12:21;3.37;;;1.10;;
4686;SDS011;2357;47.316;-1.348;2022-09-16T12:14:54;0.50;;;0.50;;
4686;SDS011;2357;47.316;-1.348;2022-09-16T12:17:25;0.83;;;0.50;;
4686;SDS011;2357;47.316;-1.348;2022-09-16T12:19:57;1.57;;;0.50;;
4686;SDS011;2357;47.316;-1.348;2022-09-16T12:23:22;1.10;;;0.67;;
4686;SDS011;2357;47.316;-1.348;2022-09-16T12:25:34;2.20;;;0.57;;
4686;SDS011;2357;47.316;-1.348;2022-09-16T12:28:28;1.10;;;0.80;;
4686;SDS011;2357;47.316;-1.348;2022-09-16T12:36:46;1.13;;;0.57;;
4686;SDS011;2357;47.316;-1.348;2022-09-16T12:39:18;0.90;;;0.53;;
4686;SDS011;2357;47.316;-1.348;2022-09-16T13:01:22;7.50;;;0.60;;
4686;SDS011;2357;47.316;-1.348;2022-09-16T13:04:02;1.63;;;0.70;;
4686;SDS011;2357;47.316;-1.348;2022-09-16T13:07:15;2.10;;;0.80;;
4686;SDS011;2357;47.316;-1.348;2022-09-16T13:10:53;1.90;;;0.60;;
4686;SDS011;2357;47.316;-1.348;2022-09-16T13:12:56;5.70;;;0.87;;
4686;SDS011;2357;47.316;-1.348;2022-09-16T13:15:33;0.57;;;0.57;;
4686;SDS011;2357;47.316;-1.348;2022-09-16T13:21:42;1.70;;;0.63;;
4686;SDS011;2357;47.316;-1.348;2022-09-16T13:23:47;1.73;;;0.60;;
4686;SDS011;2357;47.316;-1.348;2022-09-16T13:26:40;0.70;;;0.60;;
4686;SDS011;2357;47.316;-1.348;2022-09-16T13:31:56;1.80;;;0.70;;
4686;SDS011;2357;47.316;-1.348;2022-09-16T13:34:22;2.70;;;0.63;;
4686;SDS011;2357;47.316;-1.348;2022-09-16T13:36:49;0.50;;;0.40;;
4686;SDS011;2357;47.316;-1.348;2022-09-16T13:39:26;2.00;;;0.50;;
4686;SDS011;2357;47.316;-1.348;2022-09-16T13:41:53;0.80;;;0.80;;
4686;SDS011;2357;47.316;-1.348;2022-09-16T13:44:37;6.27;;;0.70;;
4686;SDS011;2357;47.316;-1.348;2022-09-16T13:49:38;3.27;;;0.63;;
4686;SDS011;2357;47.316;-1.348;2022-09-16T13:52:14;2.13;;;0.53;;
4686;SDS011;2357;47.316;-1.348;2022-09-16T13:54:55;0.60;;;0.50;;
4686;SDS011;2357;47.316;-1.348;2022-09-16T14:02:46;1.07;;;0.50;;
4686;SDS011;2357;47.316;-1.348;2022-09-16T14:05:25;0.87;;;0.50;;
4686;SDS011;2357;47.316;-1.348;2022-09-16T14:10:55;4.83;;;0.67;;
4686;SDS011;2357;47.316;-1.348;2022-09-16T14:13:45;0.90;;;0.50;;
4686;SDS011;2357;47.316;-1.348;2022-09-16T14:16:16;1.33;;;0.60;;
4686;SDS011;2357;47.316;-1.348;2022-09-16T14:18:50;0.87;;;0.63;;
4686;SDS011;2357;47.316;-1.348;2022-09-16T14:21:20;2.63;;;0.90;;
4686;SDS011;2357;47.316;-1.348;2022-09-16T14:23:48;1.63;;;0.90;;
4686;SDS011;2357;47.316;-1.348;2022-09-16T14:26:18;1.37;;;0.60;;
4686;SDS011;2357;47.316;-1.348;2022-09-16T14:28:45;0.70;;;0.67;;
4686;SDS011;2357;47.316;-1.348;2022-09-16T14:31:18;0.53;;;0.53;;
4686;SDS011;2357;47.316;-1.348;2022-09-16T14:33:55;0.40;;;0.40;;
4686;SDS011;2357;47.316;-1.348;2022-09-16T14:36:26;0.87;;;0.60;;
4686;SDS011;2357;47.316;-1.348;2022-09-16T14:41:34;1.23;;;0.60;;
4686;SDS011;2357;47.316;-1.348;2022-09-16T14:49:14;2.00;;;0.50;;
4686;SDS011;2357;47.316;-1.348;2022-09-16T14:51:42;1.40;;;0.77;;
4686;SDS011;2357;47.316;-1.348;2022-09-16T14:54:23;2.00;;;0.60;;
4686;SDS011;2357;47.316;-1.348;2022-09-16T14:57:01;0.70;;;0.60;;
4686;SDS011;2357;47.316;-1.348;2022-09-16T14:59:31;0.70;;;0.70;;
4686;SDS011;2357;47.316;-1.348;2022-09-16T15:02:05;0.40;;;0.40;;
4686;SDS011;2357;47.316;-1.348;2022-09-16T15:04:45;1.10;;;0.60;;
4686;SDS011;2357;47.316;-1.348;2022-09-16T15:07:18;2.00;;;0.60;;
4686;SDS011;2357;47.316;-1.348;2022-09-16T15:09:49;2.60;;;0.50;;
4686;SDS011;2357;47.316;-1.348;2022-09-16T15:12:25;2.50;;;0.70;;
4686;SDS011;2357;47.316;-1.348;2022-09-16T15:14:54;2.03;;;0.60;;
4686;SDS011;2357;47.316;-1.348;2022-09-16T15:17:21;1.10;;;0.60;;
4686;SDS011;2357;47.316;-1.348;2022-09-16T15:19:54;3.90;;;0.70;;
4686;SDS011;2357;47.316;-1.348;2022-09-16T15:22:22;0.87;;;0.80;;
4686;SDS011;2357;47.316;-1.348;2022-09-16T15:24:49;1.33;;;0.60;;
4686;SDS011;2357;47.316;-1.348;2022-09-16T15:27:19;3.23;;;0.50;;
4686;SDS011;2357;47.316;-1.348;2022-09-16T15:29:47;0.50;;;0.50;;
4686;SDS011;2357;47.316;-1.348;2022-09-16T15:32:18;1.00;;;0.50;;
4686;SDS011;2357;47.316;-1.348;2022-09-16T15:35:02;1.07;;;0.53;;
4686;SDS011;2357;47.316;-1.348;2022-09-16T15:38:09;0.60;;;0.50;;
4686;SDS011;2357;47.316;-1.348;2022-09-16T15:40:38;1.37;;;0.70;;
4686;SDS011;2357;47.316;-1.348;2022-09-16T15:43:11;4.00;;;0.60;;
4686;SDS011;2357;47.316;-1.348;2022-09-16T15:45:58;3.57;;;0.70;;
4686;SDS011;2357;47.316;-1.348;2022-09-16T15:48:35;1.80;;;;;
4686;SDS011;2357;47.316;-1.348;2022-09-16T15:51:17;0.90;;;0.70;;
4686;SDS011;2357;47.316;-1.348;2022-09-16T15:53:44;0.63;;;0.50;;
4686;SDS011;2357;47.316;-1.348;2022-09-16T15:56:18;1.07;;;0.60;;
4686;SDS011;2357;47.316;-1.348;2022-09-16T15:58:47;5.00;;;0.60;;
4686;SDS011;2357;47.316;-1.348;2022-09-16T16:04:12;0.50;;;0.50;;
4686;SDS011;2357;47.316;-1.348;2022-09-16T16:06:49;0.63;;;0.60;;
4686;SDS011;2357;47.316;-1.348;2022-09-16T16:12:03;7.10;;;0.80;;
4686;SDS011;2357;47.316;-1.348;2022-09-16T16:14:35;2.10;;;0.70;;
4686;SDS011;2357;47.316;-1.348;2022-09-16T16:19:29;0.60;;;0.60;;
4686;SDS011;2357;47.316;-1.348;2022-09-16T16:21:55;1.10;;;0.70;;
4686;SDS011;2357;47.316;-1.348;2022-09-16T16:24:22;1.20;;;0.70;;
4686;SDS011;2357;47.316;-1.348;2022-09-16T16:26:48;2.40;;;0.70;;
4686;SDS011;2357;47.316;-1.348;2022-09-16T16:29:14;0.70;;;0.70;;
4686;SDS011;2357;47.316;-1.348;2022-09-16T16:31:55;2.00;;;0.90;;
4686;SDS011;2357;47.316;-1.348;2022-09-16T16:34:25;0.70;;;0.50;;
4686;SDS011;2357;47.316;-1.348;2022-09-16T16:36:51;2.97;;;0.40;;
4686;SDS011;2357;47.316;-1.348;2022-09-16T16:39:16;0.70;;;0.50;;
4686;SDS011;2357;47.316;-1.348;2022-09-16T16:41:42;0.50;;;0.50;;
4686;SDS011;2357;47.316;-1.348;2022-09-16T16:44:07;1.07;;;0.60;;
4686;SDS011;2357;47.316;-1.348;2022-09-16T16:46:33;1.47;;;0.50;;
4686;SDS011;2357;47.316;-1.348;2022-09-16T16:48:59;0.90;;;0.60;;
4686;SDS011;2357;47.316;-1.348;2022-09-16T16:51:24;1.17;;;0.67;;
4686;SDS011;2357;47.316;-1.348;2022-09-16T16:53:50;1.80;;;0.40;;
4686;SDS011;2357;47.316;-1.348;2022-09-16T16:56:17;4.97;;;0.60;;
4686;SDS011;2357;47.316;-1.348;2022-09-16T16:58:43;1.10;;;0.60;;
4686;SDS011;2357;47.316;-1.348;2022-09-16T17:01:09;2.70;;;0.67;;
4686;SDS011;2357;47.316;-1.348;2022-09-16T17:03:37;2.17;;;0.57;;
4686;SDS011;2357;47.316;-1.348;2022-09-16T17:06:04;3.60;;;0.60;;
4686;SDS011;2357;47.316;-1.348;2022-09-16T17:08:31;1.47;;;0.50;;
4686;SDS011;2357;47.316;-1.348;2022-09-16T17:11:19;1.37;;;1.27;;
4686;SDS011;2357;47.316;-1.348;2022-09-16T17:13:45;0.80;;;0.80;;
4686;SDS011;2357;47.316;-1.348;2022-09-16T17:16:14;0.93;;;0.53;;
4686;SDS011;2357;47.316;-1.348;2022-09-16T17:18:42;3.53;;;0.70;;
4686;SDS011;2357;47.316;-1.348;2022-09-16T17:21:15;1.67;;;0.70;;
4686;SDS011;2357;47.316;-1.348;2022-09-16T17:23:42;3.70;;;0.60;;
4686;SDS011;2357;47.316;-1.348;2022-09-16T17:26:08;0.90;;;0.70;;
4686;SDS011;2357;47.316;-1.348;2022-09-16T17:28:34;1.90;;;0.60;;
4686;SDS011;2357;47.316;-1.348;2022-09-16T17:31:07;0.83;;;0.67;;
4686;SDS011;2357;47.316;-1.348;2022-09-16T17:33:38;3.10;;;0.90;;
4686;SDS011;2357;47.316;-1.348;2022-09-16T17:36:05;1.43;;;0.60;;
4686;SDS011;2357;47.316;-1.348;2022-09-16T17:38:32;1.23;;;0.50;;
4686;SDS011;2357;47.316;-1.348;2022-09-16T17:41:02;0.80;;;0.60;;
4686;SDS011;2357;47.316;-1.348;2022-09-16T17:43:30;0.70;;;0.60;;
4686;SDS011;2357;47.316;-1.348;2022-09-16T17:45:57;3.90;;;1.17;;
4686;SDS011;2357;47.316;-1.348;2022-09-16T17:48:23;0.77;;;0.77;;
4686;SDS011;2357;47.316;-1.348;2022-09-16T17:50:49;1.20;;;0.57;;
4686;SDS011;2357;47.316;-1.348;2022-09-16T17:53:16;1.03;;;0.60;;
4686;SDS011;2357;47.316;-1.348;2022-09-16T17:55:41;1.20;;;0.70;;
4686;SDS011;2357;47.316;-1.348;2022-09-16T17:58:07;1.30;;;0.50;;
4686;SDS011;2357;47.316;-1.348;2022-09-16T18:00:34;3.00;;;1.20;;
4686;SDS011;2357;47.316;-1.348;2022-09-16T18:03:01;1.47;;;0.60;;
4686;SDS011;2357;47.316;-1.348;2022-09-16T18:05:27;1.47;;;0.60;;
4686;SDS011;2357;47.316;-1.348;2022-09-16T18:07:53;1.10;;;0.60;;
4686;SDS011;2357;47.316;-1.348;2022-09-16T18:10:19;10.13;;;0.70;;
4686;SDS011;2357;47.316;-1.348;2022-09-16T18:12:44;0.70;;;0.63;;
4686;SDS011;2357;47.316;-1.348;2022-09-16T18:15:10;1.03;;;0.70;;
4686;SDS011;2357;47.316;-1.348;2022-09-16T18:17:36;2.40;;;0.70;;
4686;SDS011;2357;47.316;-1.348;2022-09-16T18:20:02;0.87;;;0.60;;
4686;SDS011;2357;47.316;-1.348;2022-09-16T18:22:28;0.77;;;0.67;;
4686;SDS011;2357;47.316;-1.348;2022-09-16T18:24:54;2.70;;;1.00;;
4686;SDS011;2357;47.316;-1.348;2022-09-16T18:27:19;4.10;;;1.10;;
4686;SDS011;2357;47.316;-1.348;2022-09-16T18:29:45;1.20;;;0.70;;
4686;SDS011;2357;47.316;-1.348;2022-09-16T18:32:12;5.97;;;0.83;;
4686;SDS011;2357;47.316;-1.348;2022-09-16T18:34:37;3.50;;;0.77;;
4686;SDS011;2357;47.316;-1.348;2022-09-16T18:37:03;6.90;;;0.80;;
4686;SDS011;2357;47.316;-1.348;2022-09-16T18:39:29;2.00;;;0.60;;